Time;durP1;ratioP1;P1;durP2;ratioP2;P2;SDS_P1;SDS_P2;PMS_P1;PMS_P2;Temp;Humidity;BMP_temperature;BMP_pressure;BME280_temperature;BME280_humidity;BME280_pressure;Samples;Min_cycle;Max_cycle;Signal;HPM_P1;HPM_P2
2022/04/13 00:01:11;;;;;;;24.08;14.82;;;;;;;;;;4974554;28;20030;-69
2022/04/13 00:03:36;;;;;;;25.30;14.07;;;;;;;;;;4974628;28;20027;-69
2022/04/13 00:06:02;;;;;;;23.77;15.07;;;;;;;;;;4957832;28;20037;-69
2022/04/13 00:08:27;;;;;;;24.70;14.65;;;;;;;;;;4974335;28;20045;-69
2022/04/13 00:10:53;;;;;;;25.40;14.13;;;;;;;;;;4974555;28;20030;-68
2022/04/13 00:13:18;;;;;;;22.65;14.35;;;;;;;;;;4974333;28;20050;-69
2022/04/13 00:15:43;;;;;;;24.75;15.95;;;;;;;;;;4974700;28;20113;-69
2022/04/13 00:18:09;;;;;;;28.90;16.45;;;;;;;;;;4974274;28;20030;-69
2022/04/13 00:20:35;;;;;;;29.80;15.23;;;;;;;;;;4974524;28;20085;-69
2022/04/13 00:23:00;;;;;;;23.77;14.18;;;;;;;;;;4957201;28;20019;-70
2022/04/13 00:25:28;;;;;;;26.33;15.10;;;;;;;;;;4976397;28;20039;-70
2022/04/13 00:27:53;;;;;;;24.92;14.57;;;;;;;;;;4977800;28;20019;-70
2022/04/13 00:30:19;;;;;;;25.23;14.48;;;;;;;;;;4977649;28;20368;-70
2022/04/13 00:32:44;;;;;;;22.85;14.13;;;;;;;;;;4977571;28;20077;-70
2022/04/13 00:35:10;;;;;;;25.48;15.02;;;;;;;;;;4977507;28;20034;-70
2022/04/13 00:37:37;;;;;;;24.17;14.55;;;;;;;;;;4977726;28;20022;-71
2022/04/13 00:40:02;;;;;;;26.73;14.88;;;;;;;;;;4977270;28;20117;-69
2022/04/13 00:42:29;;;;;;;26.52;14.30;;;;;;;;;;4960191;28;20114;-67
2022/04/13 00:44:55;;;;;;;25.33;14.57;;;;;;;;;;4977861;28;20416;-67
2022/04/13 00:47:20;;;;;;;22.80;13.75;;;;;;;;;;4977402;28;20027;-67
2022/04/13 00:49:46;;;;;;;25.65;14.98;;;;;;;;;;4959867;28;20470;-67
2022/04/13 00:52:12;;;;;;;21.30;13.85;;;;;;;;;;4977607;28;20359;-68
2022/04/13 00:54:40;;;;;;;24.77;14.68;;;;;;;;;;4977729;28;20039;-69
2022/04/13 00:57:07;;;;;;;20.77;12.98;;;;;;;;;;4977586;28;20038;-69
2022/04/13 00:59:35;;;;;;;21.63;12.95;;;;;;;;;;4977121;28;20390;-69
2022/04/13 01:02:00;;;;;;;20.33;12.73;;;;;;;;;;4977237;28;20026;-69
2022/04/13 01:04:27;;;;;;;20.75;12.95;;;;;;;;;;4960041;28;20030;-70
2022/04/13 01:06:53;;;;;;;21.83;13.23;;;;;;;;;;4977158;28;20052;-70
2022/04/13 01:09:19;;;;;;;20.48;12.65;;;;;;;;;;4976886;28;20094;-70
2022/04/13 01:11:44;;;;;;;19.15;12.23;;;;;;;;;;4959849;28;20034;-70
2022/04/13 01:14:10;;;;;;;19.65;13.07;;;;;;;;;;4959463;28;20027;-70
2022/04/13 01:16:38;;;;;;;22.30;13.82;;;;;;;;;;4977128;28;20015;-70
2022/04/13 01:19:04;;;;;;;22.17;13.68;;;;;;;;;;4976756;28;20042;-70
2022/04/13 01:21:36;;;;;;;19.38;12.10;;;;;;;;;;4976688;28;20027;-70
2022/04/13 01:24:03;;;;;;;21.35;11.73;;;;;;;;;;4959223;28;20034;-70
2022/04/13 01:26:28;;;;;;;20.73;12.43;;;;;;;;;;4976761;28;20022;-69
2022/04/13 01:28:54;;;;;;;17.27;11.82;;;;;;;;;;4976561;28;20390;-70
2022/04/13 01:31:19;;;;;;;18.65;12.07;;;;;;;;;;4976676;28;20019;-71
2022/04/13 01:33:44;;;;;;;19.73;11.77;;;;;;;;;;4976767;28;20027;-70
2022/04/13 01:36:09;;;;;;;16.60;11.27;;;;;;;;;;4959023;28;20356;-69
2022/04/13 01:38:35;;;;;;;17.52;10.98;;;;;;;;;;4976527;28;20043;-70
2022/04/13 01:41:00;;;;;;;19.27;12.05;;;;;;;;;;4976281;28;20049;-70
2022/04/13 01:43:26;;;;;;;19.02;11.30;;;;;;;;;;4976299;28;20042;-68
2022/04/13 01:45:51;;;;;;;19.42;11.82;;;;;;;;;;4959051;28;20039;-69
2022/04/13 01:48:18;;;;;;;18.15;12.20;;;;;;;;;;4976316;28;20042;-68
2022/04/13 01:50:43;;;;;;;20.23;12.85;;;;;;;;;;4958839;28;20015;-67
2022/04/13 01:53:08;;;;;;;21.08;12.95;;;;;;;;;;4976266;28;20034;-67
2022/04/13 01:55:34;;;;;;;17.13;11.73;;;;;;;;;;4976012;28;20023;-68
2022/04/13 01:57:59;;;;;;;23.08;12.52;;;;;;;;;;4976104;28;20474;-68
2022/04/13 02:00:24;;;;;;;19.63;12.80;;;;;;;;;;4975966;28;20109;-68
2022/04/13 02:02:51;;;;;;;18.08;11.77;;;;;;;;;;4976506;28;20027;-67
2022/04/13 02:05:16;;;;;;;18.35;11.70;;;;;;;;;;4975751;28;20019;-67
2022/04/13 02:07:42;;;;;;;21.58;12.32;;;;;;;;;;4976385;28;20110;-68
2022/04/13 02:10:09;;;;;;;18.58;12.18;;;;;;;;;;4975783;28;20111;-68
2022/04/13 02:12:35;;;;;;;16.00;11.65;;;;;;;;;;4958402;28;20027;-68
2022/04/13 02:15:00;;;;;;;17.77;11.65;;;;;;;;;;4975709;28;20097;-68
2022/04/13 02:17:25;;;;;;;17.42;10.73;;;;;;;;;;4975787;28;20042;-68
2022/04/13 02:19:51;;;;;;;14.57;10.65;;;;;;;;;;4975820;28;20369;-68
2022/04/13 02:22:16;;;;;;;17.13;9.95;;;;;;;;;;4975831;28;20042;-68
2022/04/13 02:24:41;;;;;;;17.65;10.35;;;;;;;;;;4975465;28;20369;-67
2022/04/13 02:27:07;;;;;;;15.27;9.50;;;;;;;;;;4975904;28;20113;-68
2022/04/13 02:29:34;;;;;;;16.30;10.27;;;;;;;;;;4975454;28;20364;-67
2022/04/13 02:31:59;;;;;;;15.27;9.75;;;;;;;;;;4975595;28;20493;-66
2022/04/13 02:34:25;;;;;;;14.50;9.93;;;;;;;;;;4975340;28;20035;-66
2022/04/13 02:36:50;;;;;;;15.18;9.55;;;;;;;;;;4990407;28;20035;-67
2022/04/13 02:39:15;;;;;;;18.35;10.45;;;;;;;;;;4958048;28;20082;-67
2022/04/13 02:41:42;;;;;;;14.00;9.50;;;;;;;;;;4975174;28;20047;-67
2022/04/13 02:44:07;;;;;;;11.98;8.85;;;;;;;;;;4975068;28;20114;-67
2022/04/13 02:46:33;;;;;;;13.45;9.52;;;;;;;;;;4975123;28;20444;-68
2022/04/13 02:48:58;;;;;;;16.67;10.48;;;;;;;;;;4974968;28;20023;-67
2022/04/13 02:51:24;;;;;;;16.23;10.05;;;;;;;;;;4975686;28;20025;-67
2022/04/13 02:53:49;;;;;;;15.20;10.27;;;;;;;;;;4975044;28;20481;-68
2022/04/13 02:56:15;;;;;;;14.23;9.90;;;;;;;;;;4975089;28;20046;-68
2022/04/13 02:58:40;;;;;;;14.90;9.25;;;;;;;;;;4975049;28;20062;-67
2022/04/13 03:01:06;;;;;;;14.23;9.85;;;;;;;;;;4975026;28;20038;-67
2022/04/13 03:03:32;;;;;;;14.63;9.40;;;;;;;;;;4975447;28;20018;-67
2022/04/13 03:05:57;;;;;;;13.02;8.93;;;;;;;;;;4974829;28;20031;-68
2022/04/13 03:08:22;;;;;;;14.18;9.35;;;;;;;;;;4975089;28;20029;-67
2022/04/13 03:10:48;;;;;;;14.38;9.40;;;;;;;;;;4974865;28;20019;-68
2022/04/13 03:13:13;;;;;;;20.38;10.00;;;;;;;;;;4974926;28;20026;-67
2022/04/13 03:15:39;;;;;;;13.75;9.70;;;;;;;;;;4975175;28;20034;-67
2022/04/13 03:18:05;;;;;;;12.25;9.10;;;;;;;;;;4974945;28;20117;-67
2022/04/13 03:20:31;;;;;;;12.80;9.32;;;;;;;;;;4974935;28;20030;-67
2022/04/13 03:22:56;;;;;;;18.05;9.88;;;;;;;;;;4975204;28;20101;-67
2022/04/13 03:25:22;;;;;;;16.02;9.88;;;;;;;;;;4974678;28;20031;-66
2022/04/13 03:27:47;;;;;;;13.18;8.95;;;;;;;;;;4975306;28;20474;-67
2022/04/13 03:30:16;;;;;;;19.63;9.38;;;;;;;;;;4974680;28;20033;-67
2022/04/13 03:32:41;;;;;;;16.75;9.40;;;;;;;;;;4974664;28;20136;-68
2022/04/13 03:35:07;;;;;;;14.27;9.57;;;;;;;;;;4975008;28;20054;-68
2022/04/13 03:37:32;;;;;;;13.25;9.15;;;;;;;;;;4974778;28;20454;-68
2022/04/13 03:39:58;;;;;;;15.88;9.43;;;;;;;;;;4974520;28;20108;-69
2022/04/13 03:42:23;;;;;;;17.73;9.27;;;;;;;;;;4974635;28;20034;-68
2022/04/13 03:44:49;;;;;;;18.70;9.48;;;;;;;;;;4974978;28;20043;-68
2022/04/13 03:47:14;;;;;;;15.25;9.45;;;;;;;;;;4957520;28;20048;-68
2022/04/13 03:49:40;;;;;;;13.75;9.30;;;;;;;;;;4989361;28;20033;-67
2022/04/13 03:52:05;;;;;;;14.75;9.30;;;;;;;;;;4974632;28;20153;-67
2022/04/13 03:54:31;;;;;;;16.80;9.73;;;;;;;;;;4974310;28;20121;-67
2022/04/13 03:56:56;;;;;;;14.98;9.88;;;;;;;;;;4974217;28;20106;-67
2022/04/13 03:59:22;;;;;;;17.58;10.07;;;;;;;;;;4974909;28;20063;-67
2022/04/13 04:01:47;;;;;;;17.27;9.88;;;;;;;;;;4960654;28;20497;-67
2022/04/13 04:04:13;;;;;;;16.77;10.30;;;;;;;;;;4977821;28;20038;-68
2022/04/13 04:06:38;;;;;;;15.75;9.48;;;;;;;;;;4977836;28;20019;-68
2022/04/13 04:09:04;;;;;;;13.35;9.18;;;;;;;;;;4977761;28;20027;-68
2022/04/13 04:11:29;;;;;;;18.92;9.10;;;;;;;;;;4960277;28;20081;-69
2022/04/13 04:13:55;;;;;;;17.13;9.95;;;;;;;;;;4977555;28;20039;-68
2022/04/13 04:16:20;;;;;;;14.30;9.23;;;;;;;;;;4977165;28;20081;-68
2022/04/13 04:18:48;;;;;;;15.63;9.82;;;;;;;;;;4977461;28;20090;-67
2022/04/13 04:21:13;;;;;;;14.70;9.32;;;;;;;;;;4977646;28;20058;-67
2022/04/13 04:23:39;;;;;;;16.17;9.88;;;;;;;;;;4977462;28;20071;-67
2022/04/13 04:26:04;;;;;;;16.45;9.85;;;;;;;;;;4977617;28;20032;-66
2022/04/13 04:28:30;;;;;;;14.98;9.68;;;;;;;;;;4977072;28;20427;-67
2022/04/13 04:30:55;;;;;;;18.00;9.95;;;;;;;;;;4976711;28;20027;-67
2022/04/13 04:33:20;;;;;;;16.15;10.73;;;;;;;;;;4976551;28;20031;-66
2022/04/13 04:35:50;;;;;;;13.73;9.18;;;;;;;;;;4976418;28;20027;-66
2022/04/13 04:38:15;;;;;;;14.93;9.00;;;;;;;;;;4976421;28;20038;-67
2022/04/13 04:40:40;;;;;;;14.80;9.35;;;;;;;;;;4976267;28;20478;-68
2022/04/13 04:43:06;;;;;;;15.88;9.25;;;;;;;;;;4975678;28;20030;-68
2022/04/13 04:45:31;;;;;;;14.02;9.30;;;;;;;;;;4976965;28;20082;-69
2022/04/13 04:48:04;;;;;;;15.73;9.32;;;;;;;;;;4976990;28;20418;-69
2022/04/13 04:50:30;;;;;;;14.70;9.88;;;;;;;;;;4977100;28;20096;-68
2022/04/13 04:52:55;;;;;;;12.38;9.43;;;;;;;;;;4976922;28;20023;-69
2022/04/13 04:55:21;;;;;;;11.55;8.57;;;;;;;;;;4977064;28;20030;-69
2022/04/13 04:57:46;;;;;;;14.43;9.77;;;;;;;;;;4976002;28;20023;-69
2022/04/13 05:00:14;;;;;;;13.02;8.93;;;;;;;;;;4958866;28;20062;-69
2022/04/13 05:02:39;;;;;;;13.02;8.63;;;;;;;;;;4976101;28;20031;-68
2022/04/13 05:05:05;;;;;;;10.75;9.25;;;;;;;;;;4975936;28;20498;-69
2022/04/13 05:07:30;;;;;;;13.45;8.82;;;;;;;;;;4976004;28;20070;-69
2022/04/13 05:09:56;;;;;;;15.55;9.13;;;;;;;;;;4975525;28;20038;-69
2022/04/13 05:12:21;;;;;;;12.90;9.32;;;;;;;;;;4958514;28;20022;-69
2022/04/13 05:14:46;;;;;;;27.58;22.23;;;;;;;;;;4975846;28;20034;-69
2022/04/13 05:17:12;;;;;;;53.33;34.25;;;;;;;;;;4975774;28;20437;-70
2022/04/13 05:19:37;;;;;;;28.38;16.60;;;;;;;;;;4975708;28;20035;-69
2022/04/13 05:22:03;;;;;;;25.30;11.98;;;;;;;;;;4958558;28;20029;-69
2022/04/13 05:24:28;;;;;;;50.63;24.95;;;;;;;;;;4975578;28;20122;-69
2022/04/13 05:26:53;;;;;;;51.33;25.10;;;;;;;;;;4975814;28;20027;-71
2022/04/13 05:29:21;;;;;;;242.60;129.13;;;;;;;;;;4976627;28;20096;-71
2022/04/13 05:31:46;;;;;;;213.57;119.55;;;;;;;;;;4958716;28;20389;-71
2022/04/13 05:34:12;;;;;;;16.52;10.10;;;;;;;;;;4976693;28;20109;-71
2022/04/13 05:36:37;;;;;;;15.33;10.63;;;;;;;;;;4959442;28;20031;-70
2022/04/13 05:39:03;;;;;;;17.30;12.43;;;;;;;;;;4976654;28;20281;-71
2022/04/13 05:41:28;;;;;;;15.15;10.38;;;;;;;;;;4958673;28;20046;-71
2022/04/13 05:43:53;;;;;;;22.65;15.50;;;;;;;;;;4975668;28;20038;-71
2022/04/13 05:46:19;;;;;;;18.80;13.52;;;;;;;;;;4976295;28;20034;-71
2022/04/13 05:48:44;;;;;;;14.93;9.50;;;;;;;;;;4976598;28;20025;-71
2022/04/13 05:51:09;;;;;;;13.73;8.95;;;;;;;;;;4976029;28;20479;-71
2022/04/13 05:53:36;;;;;;;12.77;8.52;;;;;;;;;;4958538;28;20038;-71
2022/04/13 05:56:01;;;;;;;18.55;14.35;;;;;;;;;;4975940;28;20109;-71
2022/04/13 05:58:27;;;;;;;12.32;9.30;;;;;;;;;;4976338;28;20447;-71
2022/04/13 06:00:52;;;;;;;11.65;8.82;;;;;;;;;;4958754;28;20094;-71
2022/04/13 06:03:18;;;;;;;13.20;8.60;;;;;;;;;;4976221;28;20034;-71
2022/04/13 06:05:44;;;;;;;16.38;10.20;;;;;;;;;;4976145;28;20061;-71
2022/04/13 06:08:09;;;;;;;14.30;8.55;;;;;;;;;;4976138;28;20042;-71
2022/04/13 06:10:35;;;;;;;14.07;9.05;;;;;;;;;;4976104;28;20074;-71
2022/04/13 06:13:00;;;;;;;8.85;6.35;;;;;;;;;;4975787;28;20505;-71
2022/04/13 06:15:25;;;;;;;11.45;6.63;;;;;;;;;;4976302;28;20026;-71
2022/04/13 06:17:51;;;;;;;12.38;8.63;;;;;;;;;;4975963;28;20066;-71
2022/04/13 06:20:16;;;;;;;11.07;8.20;;;;;;;;;;4975653;28;20027;-71
2022/04/13 06:22:42;;;;;;;7.63;6.15;;;;;;;;;;4975160;28;20301;-71
2022/04/13 06:25:09;;;;;;;6.88;5.57;;;;;;;;;;4975508;28;20110;-71
2022/04/13 06:27:34;;;;;;;9.65;6.57;;;;;;;;;;4975548;28;20039;-71
2022/04/13 06:30:00;;;;;;;12.68;6.78;;;;;;;;;;4975748;28;20023;-71
2022/04/13 06:32:35;;;;;;;12.88;7.80;;;;;;;;;;4975702;28;20034;-71
2022/04/13 06:35:01;;;;;;;7.90;5.57;;;;;;;;;;4975402;28;20097;-70
2022/04/13 06:37:26;;;;;;;12.00;7.15;;;;;;;;;;4975350;28;20038;-71
2022/04/13 06:39:52;;;;;;;10.18;6.47;;;;;;;;;;4958906;28;20039;-71
2022/04/13 06:42:17;;;;;;;8.23;5.40;;;;;;;;;;4975142;28;20078;-71
2022/04/13 06:44:43;;;;;;;5.78;4.22;;;;;;;;;;4975734;28;20065;-70
2022/04/13 06:47:08;;;;;;;8.38;5.15;;;;;;;;;;4975461;28;20070;-71
2022/04/13 06:49:33;;;;;;;7.63;5.38;;;;;;;;;;4975199;28;20127;-70
2022/04/13 06:51:58;;;;;;;10.85;6.78;;;;;;;;;;4975140;28;20029;-71
2022/04/13 06:54:24;;;;;;;8.30;5.80;;;;;;;;;;4975090;28;20118;-71
2022/04/13 06:56:49;;;;;;;9.23;4.80;;;;;;;;;;4975326;28;20026;-71
2022/04/13 06:59:15;;;;;;;7.22;4.93;;;;;;;;;;4975357;28;20027;-71
2022/04/13 07:01:40;;;;;;;6.40;4.65;;;;;;;;;;4975090;28;20101;-70
2022/04/13 07:04:05;;;;;;;5.20;4.00;;;;;;;;;;4974995;28;20038;-70
2022/04/13 07:06:31;;;;;;;6.30;4.47;;;;;;;;;;4957598;28;20464;-70
2022/04/13 07:08:56;;;;;;;6.80;4.05;;;;;;;;;;4975142;28;20019;-71
2022/04/13 07:11:22;;;;;;;7.03;3.90;;;;;;;;;;4941641;28;20378;-71
2022/04/13 07:13:47;;;;;;;9.18;5.32;;;;;;;;;;4975128;28;20109;-71
2022/04/13 07:16:12;;;;;;;5.82;3.95;;;;;;;;;;4974860;28;20081;-71
2022/04/13 07:18:38;;;;;;;6.43;4.25;;;;;;;;;;4974832;28;20034;-71
2022/04/13 07:21:03;;;;;;;7.22;5.65;;;;;;;;;;4974804;28;20023;-70
2022/04/13 07:23:30;;;;;;;2.78;2.58;;;;;;;;;;4975029;28;20038;-71
2022/04/13 07:25:55;;;;;;;3.10;2.80;;;;;;;;;;4957400;28;20056;-70
2022/04/13 07:28:20;;;;;;;4.18;2.85;;;;;;;;;;4974753;28;20058;-71
2022/04/13 07:30:45;;;;;;;3.78;3.30;;;;;;;;;;4974994;28;20030;-70
2022/04/13 07:33:11;;;;;;;4.32;3.13;;;;;;;;;;4975197;28;20031;-70
2022/04/13 07:35:36;;;;;;;3.63;3.03;;;;;;;;;;4978705;28;20058;-70
2022/04/13 07:38:02;;;;;;;7.05;3.53;;;;;;;;;;4993684;28;20039;-71
2022/04/13 07:40:27;;;;;;;4.25;3.55;;;;;;;;;;4958972;28;20031;-71
2022/04/13 07:42:53;;;;;;;4.22;3.13;;;;;;;;;;4976509;28;20023;-70
2022/04/13 07:45:18;;;;;;;3.45;3.15;;;;;;;;;;4977552;28;20089;-71
2022/04/13 07:47:43;;;;;;;4.45;3.50;;;;;;;;;;4977875;28;20470;-70
2022/04/13 07:50:12;;;;;;;3.33;3.00;;;;;;;;;;4977774;28;20477;-71
2022/04/13 07:52:39;;;;;;;5.55;4.72;;;;;;;;;;4977651;28;20094;-70
2022/04/13 07:55:04;;;;;;;5.60;3.70;;;;;;;;;;4977875;28;20026;-71
2022/04/13 07:57:30;;;;;;;4.68;3.30;;;;;;;;;;4978656;28;20042;-70
2022/04/13 07:59:55;;;;;;;4.82;3.85;;;;;;;;;;4978502;28;20022;-70
2022/04/13 08:02:21;;;;;;;5.45;4.50;;;;;;;;;;4960936;28;20122;-70
2022/04/13 08:04:46;;;;;;;6.30;3.60;;;;;;;;;;4977903;28;20030;-70
2022/04/13 08:07:12;;;;;;;14.10;6.15;;;;;;;;;;4978110;28;20113;-70
2022/04/13 08:09:37;;;;;;;8.52;4.78;;;;;;;;;;4978378;28;20434;-70
2022/04/13 08:12:04;;;;;;;6.95;4.80;;;;;;;;;;4977286;28;20035;-70
2022/04/13 08:14:29;;;;;;;6.50;4.07;;;;;;;;;;4978072;28;20026;-70
2022/04/13 08:16:55;;;;;;;6.35;4.57;;;;;;;;;;4976844;28;20213;-71
2022/04/13 08:19:21;;;;;;;6.18;4.18;;;;;;;;;;4959541;28;20102;-71
2022/04/13 08:21:46;;;;;;;6.75;4.28;;;;;;;;;;4976769;28;20514;-71
2022/04/13 08:24:11;;;;;;;6.90;5.07;;;;;;;;;;4976737;28;20015;-71
2022/04/13 08:26:37;;;;;;;7.10;5.00;;;;;;;;;;4976578;28;20504;-70
2022/04/13 08:29:03;;;;;;;10.15;7.18;;;;;;;;;;4976953;28;20094;-71
2022/04/13 08:31:28;;;;;;;8.10;6.03;;;;;;;;;;4976597;28;20069;-71
2022/04/13 08:33:53;;;;;;;8.40;6.10;;;;;;;;;;4959206;28;20050;-71
2022/04/13 08:36:19;;;;;;;8.48;4.25;;;;;;;;;;4976498;28;20031;-71
2022/04/13 08:38:44;;;;;;;7.18;4.68;;;;;;;;;;4976473;28;20080;-71
2022/04/13 08:41:14;;;;;;;4.93;4.15;;;;;;;;;;4976290;28;20066;-70
2022/04/13 08:43:43;;;;;;;5.95;4.40;;;;;;;;;;4991415;28;20320;-71
2022/04/13 08:46:11;;;;;;;5.60;4.97;;;;;;;;;;4975528;28;20031;-71
2022/04/13 08:48:37;;;;;;;6.72;4.78;;;;;;;;;;4976317;28;20042;-70
2022/04/13 08:51:03;;;;;;;5.38;4.03;;;;;;;;;;4976315;28;20042;-70
2022/04/13 08:53:31;;;;;;;6.47;3.92;;;;;;;;;;4976235;28;20113;-70
2022/04/13 08:55:57;;;;;;;12.52;5.28;;;;;;;;;;4976186;28;20031;-70
2022/04/13 08:58:31;;;;;;;5.22;4.30;;;;;;;;;;4976192;28;20026;-70
2022/04/13 09:00:59;;;;;;;4.20;3.80;;;;;;;;;;4958830;28;20062;-70
2022/04/13 09:03:33;;;;;;;4.57;4.18;;;;;;;;;;4976112;28;20030;-70
2022/04/13 09:05:59;;;;;;;9.05;4.22;;;;;;;;;;4975962;28;20030;-70
2022/04/13 09:08:34;;;;;;;4.57;3.33;;;;;;;;;;4976059;28;20451;-70
2022/04/13 09:11:00;;;;;;;7.07;4.85;;;;;;;;;;4958678;28;20058;-70
2022/04/13 09:13:26;;;;;;;6.10;5.18;;;;;;;;;;4958528;28;20117;-70
2022/04/13 09:15:53;;;;;;;5.43;4.75;;;;;;;;;;4975794;28;20066;-70
2022/04/13 09:18:18;;;;;;;6.25;4.35;;;;;;;;;;4975795;28;20019;-70
2022/04/13 09:20:44;;;;;;;5.35;4.65;;;;;;;;;;4975671;28;20030;-70
2022/04/13 09:23:09;;;;;;;7.88;5.10;;;;;;;;;;4975682;28;20471;-70
2022/04/13 09:25:36;;;;;;;6.05;4.68;;;;;;;;;;4975574;28;20034;-70
2022/04/13 09:28:02;;;;;;;7.38;5.05;;;;;;;;;;4975555;28;20022;-70
2022/04/13 09:30:28;;;;;;;8.35;4.55;;;;;;;;;;4975471;28;20027;-71
2022/04/13 09:32:54;;;;;;;6.10;4.20;;;;;;;;;;4975533;28;20076;-69
2022/04/13 09:35:20;;;;;;;5.25;4.35;;;;;;;;;;4958075;28;20046;-69
2022/04/13 09:37:45;;;;;;;6.13;3.97;;;;;;;;;;4958111;28;20031;-69
2022/04/13 09:40:29;;;;;;;6.88;4.72;;;;;;;;;;4975180;28;20023;-69
2022/04/13 09:43:06;;;;;;;5.28;4.43;;;;;;;;;;4975320;28;20371;-69
2022/04/13 09:45:32;;;;;;;7.60;5.00;;;;;;;;;;4975195;28;20031;-72
2022/04/13 09:47:57;;;;;;;8.75;4.80;;;;;;;;;;4975241;28;20366;-69
2022/04/13 09:50:24;;;;;;;7.05;5.07;;;;;;;;;;4975212;28;20070;-69
2022/04/13 09:52:52;;;;;;;6.40;4.55;;;;;;;;;;4975107;28;20548;-69
2022/04/13 09:55:21;;;;;;;6.90;4.78;;;;;;;;;;4957741;28;20697;-69
2022/04/13 09:57:46;;;;;;;7.70;5.13;;;;;;;;;;4974106;28;20022;-70
2022/04/13 10:00:12;;;;;;;5.88;4.70;;;;;;;;;;4975189;28;20542;-70
2022/04/13 10:02:41;;;;;;;7.22;4.30;;;;;;;;;;4957845;28;20038;-70
2022/04/13 10:05:09;;;;;;;5.03;4.05;;;;;;;;;;4974856;28;20041;-70
2022/04/13 10:07:36;;;;;;;5.63;5.05;;;;;;;;;;4974920;28;20030;-70
2022/04/13 10:10:03;;;;;;;6.85;4.40;;;;;;;;;;4975130;28;20041;-70
2022/04/13 10:12:28;;;;;;;6.75;4.00;;;;;;;;;;4957423;28;20490;-70
2022/04/13 10:15:05;;;;;;;5.47;4.78;;;;;;;;;;4974824;28;20038;-70
2022/04/13 10:17:33;;;;;;;4.70;3.80;;;;;;;;;;4974695;28;20034;-70
2022/04/13 10:19:58;;;;;;;3.70;2.92;;;;;;;;;;4973363;28;20027;-70
2022/04/13 10:22:24;;;;;;;6.78;4.90;;;;;;;;;;4974609;28;20112;-70
2022/04/13 10:24:49;;;;;;;5.88;4.85;;;;;;;;;;4974765;28;20034;-70
2022/04/13 10:27:16;;;;;;;5.88;4.72;;;;;;;;;;4974522;28;20035;-70
2022/04/13 10:29:43;;;;;;;4.82;4.30;;;;;;;;;;4957071;28;20382;-71
2022/04/13 10:32:08;;;;;;;3.95;3.05;;;;;;;;;;4974487;28;20082;-71
2022/04/13 10:34:35;;;;;;;14.75;7.05;;;;;;;;;;4974365;28;20053;-71
2022/04/13 10:37:01;;;;;;;4.82;3.38;;;;;;;;;;4974364;28;20034;-71
2022/04/13 10:39:26;;;;;;;7.05;4.13;;;;;;;;;;4974276;28;20018;-71
2022/04/13 10:41:52;;;;;;;7.43;4.13;;;;;;;;;;4953619;29;20111;-71
2022/04/13 10:44:21;;;;;;;6.43;3.78;;;;;;;;;;4954960;29;20038;-71
2022/04/13 10:46:48;;;;;;;8.02;3.92;;;;;;;;;;4954877;28;20026;-71
2022/04/13 10:49:17;;;;;;;4.47;3.13;;;;;;;;;;4954913;28;20031;-71
2022/04/13 10:51:44;;;;;;;5.82;4.68;;;;;;;;;;4954850;29;20390;-70
2022/04/13 10:54:13;;;;;;;51.28;24.52;;;;;;;;;;4954824;28;20035;-70
2022/04/13 10:56:42;;;;;;;41.42;25.40;;;;;;;;;;4969591;28;20126;-70
2022/04/13 10:59:18;;;;;;;5.50;3.72;;;;;;;;;;4954786;28;20023;-70
2022/04/13 11:01:43;;;;;;;6.15;4.50;;;;;;;;;;4954755;29;20038;-70
2022/04/13 11:04:09;;;;;;;4.95;4.28;;;;;;;;;;4954646;29;20027;-70
2022/04/13 11:06:35;;;;;;;7.90;4.43;;;;;;;;;;4954571;28;20027;-70
2022/04/13 11:09:02;;;;;;;5.82;3.70;;;;;;;;;;4954269;28;20024;-70
2022/04/13 11:11:28;;;;;;;4.28;3.55;;;;;;;;;;4954594;28;20542;-70
2022/04/13 11:13:54;;;;;;;5.80;4.47;;;;;;;;;;4954575;29;20019;-70
2022/04/13 11:16:20;;;;;;;5.15;3.58;;;;;;;;;;4954534;28;20479;-70
2022/04/13 11:19:00;;;;;;;7.55;4.15;;;;;;;;;;4954527;29;20522;-70
2022/04/13 11:21:26;;;;;;;3.50;1.55;;;;;;;;;;4954492;29;20558;-70
2022/04/13 11:23:52;;;;;;;4.35;3.78;;;;;;;;;;4954465;29;20110;-70
2022/04/13 11:26:25;;;;;;;4.50;2.83;;;;;;;;;;4953112;29;20027;-70
2022/04/13 11:29:09;;;;;;;6.05;4.38;;;;;;;;;;4954423;28;20035;-70
2022/04/13 11:31:53;;;;;;;6.75;5.32;;;;;;;;;;4954413;29;20031;-70
2022/04/13 11:34:26;;;;;;;6.40;4.30;;;;;;;;;;4954927;28;20051;-70
2022/04/13 11:36:52;;;;;;;7.35;3.97;;;;;;;;;;4954400;28;20390;-70
2022/04/13 11:39:37;;;;;;;6.95;4.20;;;;;;;;;;4954337;29;20107;-70
2022/04/13 11:42:02;;;;;;;5.78;3.60;;;;;;;;;;4970815;28;20042;-70
2022/04/13 11:44:45;;;;;;;5.47;4.13;;;;;;;;;;4973459;28;20039;-70
2022/04/13 11:47:14;;;;;;;6.53;4.82;;;;;;;;;;4973504;28;20097;-70
2022/04/13 11:49:56;;;;;;;7.22;4.97;;;;;;;;;;4956232;28;20027;-72
2022/04/13 11:52:43;;;;;;;7.75;5.72;;;;;;;;;;4973492;28;20474;-70
2022/04/13 11:55:18;;;;;;;6.90;5.43;;;;;;;;;;4956143;28;20038;-70
2022/04/13 11:58:02;;;;;;;8.82;5.75;;;;;;;;;;4973457;28;20023;-68
2022/04/13 12:00:49;;;;;;;5.63;5.13;;;;;;;;;;4956092;28;20034;-68
2022/04/13 12:03:26;;;;;;;4.20;3.85;;;;;;;;;;4973363;28;20085;-68
2022/04/13 12:05:52;;;;;;;9.35;7.45;;;;;;;;;;4973279;28;20019;-68
2022/04/13 12:08:19;;;;;;;6.95;5.78;;;;;;;;;;4956058;28;20085;-69
2022/04/13 12:10:46;;;;;;;10.32;6.20;;;;;;;;;;4973326;28;20018;-67
2022/04/13 12:13:12;;;;;;;6.32;5.53;;;;;;;;;;4974084;28;20036;-67
2022/04/13 12:15:45;;;;;;;8.20;6.07;;;;;;;;;;4957063;28;20114;-67
2022/04/13 12:18:10;;;;;;;7.18;5.43;;;;;;;;;;4957403;28;20046;-67
2022/04/13 12:20:36;;;;;;;8.15;6.35;;;;;;;;;;4975548;28;20094;-67
2022/04/13 12:23:14;;;;;;;6.72;5.47;;;;;;;;;;4978108;28;20042;-67
2022/04/13 12:25:43;;;;;;;5.50;5.00;;;;;;;;;;4960753;28;20490;-67
2022/04/13 12:28:08;;;;;;;8.07;5.75;;;;;;;;;;4978015;28;20542;-67
2022/04/13 12:30:34;;;;;;;5.90;5.30;;;;;;;;;;4977624;28;20058;-67
2022/04/13 12:33:10;;;;;;;8.23;5.45;;;;;;;;;;4978220;28;20090;-67
2022/04/13 12:35:46;;;;;;;6.93;5.28;;;;;;;;;;4977898;28;20097;-67
2022/04/13 12:38:19;;;;;;;6.75;5.35;;;;;;;;;;4977907;28;20030;-67
2022/04/13 12:40:45;;;;;;;5.85;5.28;;;;;;;;;;4977814;28;20057;-67
2022/04/13 12:43:10;;;;;;;8.05;5.40;;;;;;;;;;4978018;28;20113;-67
2022/04/13 12:45:36;;;;;;;6.15;4.20;;;;;;;;;;4977625;28;20050;-67
2022/04/13 12:48:07;;;;;;;8.48;5.55;;;;;;;;;;4977697;28;20022;-67
2022/04/13 12:50:33;;;;;;;36.88;22.85;;;;;;;;;;4977390;28;20037;-67
2022/04/13 12:53:02;;;;;;;15.15;10.57;;;;;;;;;;4977607;28;20027;-67
2022/04/13 12:55:28;;;;;;;7.30;6.38;;;;;;;;;;4977581;28;20035;-67
2022/04/13 12:57:53;;;;;;;9.05;6.22;;;;;;;;;;4977509;28;20033;-67
2022/04/13 13:00:37;;;;;;;12.48;5.72;;;;;;;;;;4977196;28;20137;-67
2022/04/13 13:03:02;;;;;;;7.75;4.90;;;;;;;;;;4959887;28;20046;-67
2022/04/13 13:05:28;;;;;;;5.20;4.28;;;;;;;;;;4977335;28;20030;-67
2022/04/13 13:07:53;;;;;;;5.93;5.13;;;;;;;;;;4977311;28;20034;-67
2022/04/13 13:10:19;;;;;;;5.93;5.30;;;;;;;;;;4977303;28;20029;-67
2022/04/13 13:13:05;;;;;;;5.60;5.10;;;;;;;;;;4959757;28;20463;-67
2022/04/13 13:15:36;;;;;;;6.93;5.03;;;;;;;;;;4977143;28;20142;-67
2022/04/13 13:18:06;;;;;;;5.93;4.63;;;;;;;;;;4977179;28;20123;-67
2022/04/13 13:20:31;;;;;;;8.77;5.68;;;;;;;;;;4959430;28;20023;-67
2022/04/13 13:22:57;;;;;;;5.10;4.25;;;;;;;;;;4976532;28;20027;-67
2022/04/13 13:25:22;;;;;;;8.02;5.88;;;;;;;;;;4976434;28;20070;-67
2022/04/13 13:27:48;;;;;;;4.03;3.63;;;;;;;;;;4991440;28;20027;-67
2022/04/13 13:30:14;;;;;;;5.95;5.25;;;;;;;;;;4976404;28;20018;-67
2022/04/13 13:32:46;;;;;;;8.48;6.45;;;;;;;;;;4976142;28;20462;-67
2022/04/13 13:35:15;;;;;;;9.45;6.57;;;;;;;;;;4976367;28;20126;-69
2022/04/13 13:37:50;;;;;;;10.68;7.28;;;;;;;;;;4976248;28;20455;-69
2022/04/13 13:40:36;;;;;;;12.00;8.95;;;;;;;;;;4975962;28;20073;-69
2022/04/13 13:43:05;;;;;;;8.63;7.18;;;;;;;;;;4936189;28;20051;-69
2022/04/13 13:45:34;;;;;;;8.52;6.05;;;;;;;;;;4958670;28;20038;-69
2022/04/13 13:48:00;;;;;;;8.55;6.85;;;;;;;;;;4958732;28;20030;-69
2022/04/13 13:50:26;;;;;;;9.30;7.38;;;;;;;;;;4958628;28;20114;-69
2022/04/13 13:52:52;;;;;;;10.35;7.65;;;;;;;;;;4976080;28;20479;-69
2022/04/13 13:55:25;;;;;;;10.25;8.52;;;;;;;;;;4975990;28;20030;-69
2022/04/13 13:57:50;;;;;;;12.45;8.43;;;;;;;;;;4958571;28;20033;-69
2022/04/13 14:00:16;;;;;;;10.32;7.22;;;;;;;;;;4976016;28;20109;-69
2022/04/13 14:02:41;;;;;;;13.38;7.82;;;;;;;;;;4975717;28;20043;-69
2022/04/13 14:05:07;;;;;;;9.15;7.63;;;;;;;;;;4975786;28;20027;-69
2022/04/13 14:07:33;;;;;;;10.52;7.40;;;;;;;;;;4975804;28;20023;-69
2022/04/13 14:09:58;;;;;;;15.30;10.05;;;;;;;;;;4975372;28;20051;-69
2022/04/13 14:12:23;;;;;;;10.65;8.35;;;;;;;;;;4974838;28;20037;-69
2022/04/13 14:14:49;;;;;;;11.15;8.13;;;;;;;;;;4974682;28;20025;-69
2022/04/13 14:17:14;;;;;;;11.15;7.75;;;;;;;;;;4974690;28;20038;-69
2022/04/13 14:19:39;;;;;;;11.45;9.40;;;;;;;;;;4974680;28;20069;-69
2022/04/13 14:22:10;;;;;;;14.05;9.55;;;;;;;;;;4974610;28;20039;-69
2022/04/13 14:24:36;;;;;;;17.55;11.13;;;;;;;;;;4974760;28;20034;-69
2022/04/13 14:27:01;;;;;;;18.40;10.52;;;;;;;;;;4974583;28;20377;-69
2022/04/13 14:29:26;;;;;;;15.05;10.07;;;;;;;;;;4974572;28;20457;-69
2022/04/13 14:31:52;;;;;;;21.70;11.73;;;;;;;;;;4957274;28;20046;-69